Time,TemperatureF,DewpointF,PressureIn,WindDirection,WindDirectionDegrees,WindSpeedMPH,WindSpeedGustMPH,Humidity,HourlyPrecipIn,Conditions,Clouds,dailyrainin,SoftwareType,DateUTC
2013-12-28 00:01:00,22.1,20.0,30.25,WSW,250,0.0,0.0,92,0.00,,,0.00,weatherlink.com 1.10,2013-12-28 05:01:00,
2013-12-28 00:16:00,21.6,19.0,30.24,WSW,250,0.0,0.0,91,0.00,,,0.00,weatherlink.com 1.10,2013-12-28 05:16:00,
2013-12-28 00:31:00,21.8,20.0,30.23,WSW,250,0.0,0.0,92,0.00,,,0.00,weatherlink.com 1.10,2013-12-28 05:31:00,
2013-12-28 00:47:00,21.1,19.0,30.23,WSW,250,0.0,0.0,91,0.00,,,0.00,weatherlink.com 1.10,2013-12-28 05:47:00,
2013-12-28 01:02:00,20.4,18.0,30.24,WSW,250,0.0,0.0,91,0.00,,,0.00,weatherlink.com 1.10,2013-12-28 06:02:00,
2013-12-28 01:17:00,21.0,19.0,30.24,WSW,250,0.0,0.0,93,0.00,,,0.00,weatherlink.com 1.10,2013-12-28 06:17:00,
2013-12-28 01:32:00,21.2,19.0,30.23,WSW,250,0.0,0.0,92,0.00,,,0.00,weatherlink.com 1.10,2013-12-28 06:32:00,
2013-12-28 01:47:00,20.8,19.0,30.23,WSW,250,0.0,0.0,92,0.00,,,0.00,weatherlink.com 1.10,2013-12-28 06:47:00,
2013-12-28 02:02:00,20.3,18.0,30.23,WSW,250,0.0,0.0,92,0.00,,,0.00,weatherlink.com 1.10,2013-12-28 07:02:00,
2013-12-28 02:17:00,-999.0,-99.9,30.23,North,-999,-999.0,-999.0,-999,0.00,,,0.00,weatherlink.com 1.10,2013-12-28 07:17:00,
2013-12-28 02:32:00,-999.0,-99.9,30.23,North,-999,-999.0,-999.0,-999,0.00,,,0.00,weatherlink.com 1.10,2013-12-28 07:32:00,
2013-12-28 02:47:00,-999.0,-99.9,30.23,North,-999,-999.0,-999.0,-999,0.00,,,0.00,weatherlink.com 1.10,2013-12-28 07:47:00,
2013-12-28 03:02:00,-999.0,-99.9,30.21,North,-999,-999.0,-999.0,-999,0.00,,,0.00,weatherlink.com 1.10,2013-12-28 08:02:00,
2013-12-28 03:17:00,-999.0,-99.9,30.21,North,-999,-999.0,-999.0,-999,0.00,,,0.00,weatherlink.com 1.10,2013-12-28 08:17:00,
2013-12-28 03:32:00,-999.0,-99.9,30.20,North,-999,-999.0,-999.0,-999,0.00,,,0.00,weatherlink.com 1.10,2013-12-28 08:32:00,
2013-12-28 03:47:00,-999.0,-99.9,30.20,North,-999,-999.0,-999.0,-999,0.00,,,0.00,weatherlink.com 1.10,2013-12-28 08:47:00,
2013-12-28 04:02:00,-999.0,-99.9,30.19,North,-999,-999.0,-999.0,-999,0.00,,,0.00,weatherlink.com 1.10,2013-12-28 09:02:00,
2013-12-28 04:17:00,-999.0,-99.9,30.19,North,-999,-999.0,-999.0,-999,0.00,,,0.00,weatherlink.com 1.10,2013-12-28 09:17:00,
2013-12-28 04:32:00,-999.0,-99.9,30.18,North,-999,-999.0,-999.0,-999,0.00,,,0.00,weatherlink.com 1.10,2013-12-28 09:32:00,
2013-12-28 04:47:00,-999.0,-99.9,30.18,North,-999,-999.0,-999.0,-999,0.00,,,0.00,weatherlink.com 1.10,2013-12-28 09:47:00,
2013-12-28 05:02:00,-999.0,-99.9,30.18,North,-999,-999.0,-999.0,-999,0.00,,,0.00,weatherlink.com 1.10,2013-12-28 10:02:00,
2013-12-28 05:18:00,-999.0,-99.9,30.17,North,-999,-999.0,-999.0,-999,0.00,,,0.00,weatherlink.com 1.10,2013-12-28 10:18:00,
2013-12-28 05:33:00,-999.0,-99.9,30.17,North,-999,-999.0,-999.0,-999,0.00,,,0.00,weatherlink.com 1.10,2013-12-28 10:33:00,
2013-12-28 05:48:00,-999.0,-99.9,30.17,North,-999,-999.0,-999.0,-999,0.00,,,0.00,weatherlink.com 1.10,2013-12-28 10:48:00,
2013-12-28 06:03:00,-999.0,-99.9,30.18,North,-999,-999.0,-999.0,-999,0.00,,,0.00,weatherlink.com 1.10,2013-12-28 11:03:00,
2013-12-28 06:18:00,-999.0,-99.9,30.18,North,-999,-999.0,-999.0,-999,0.00,,,0.00,weatherlink.com 1.10,2013-12-28 11:18:00,
2013-12-28 06:33:00,-999.0,-99.9,30.18,North,-999,-999.0,-999.0,-999,0.00,,,0.00,weatherlink.com 1.10,2013-12-28 11:33:00,
2013-12-28 06:48:00,-999.0,-99.9,30.18,North,-999,-999.0,-999.0,-999,0.00,,,0.00,weatherlink.com 1.10,2013-12-28 11:48:00,
2013-12-28 07:03:00,-999.0,-99.9,30.18,North,-999,-999.0,-999.0,-999,0.00,,,0.00,weatherlink.com 1.10,2013-12-28 12:03:00,
2013-12-28 07:18:00,-999.0,-99.9,30.18,North,-999,-999.0,-999.0,-999,0.00,,,0.00,weatherlink.com 1.10,2013-12-28 12:18:00,
2013-12-28 07:33:00,-999.0,-99.9,30.18,North,-999,-999.0,-999.0,-999,0.00,,,0.00,weatherlink.com 1.10,2013-12-28 12:33:00,
2013-12-28 07:48:00,-999.0,-99.9,30.17,North,-999,-999.0,-999.0,-999,0.00,,,0.00,weatherlink.com 1.10,2013-12-28 12:48:00,
2013-12-28 08:03:00,-999.0,-99.9,30.18,North,-999,-999.0,-999.0,-999,0.00,,,0.00,weatherlink.com 1.10,2013-12-28 13:03:00,
2013-12-28 08:18:00,23.1,21.0,30.17,WSW,250,0.0,0.0,92,0.00,,,0.00,weatherlink.com 1.10,2013-12-28 13:18:00,
2013-12-28 08:33:00,24.8,23.0,30.17,WSW,250,0.0,0.0,92,0.00,,,0.00,weatherlink.com 1.10,2013-12-28 13:33:00,
2013-12-28 08:48:00,27.7,26.0,30.17,WSW,250,0.0,0.0,92,0.00,,,0.00,weatherlink.com 1.10,2013-12-28 13:48:00,
2013-12-28 09:03:00,29.4,27.0,30.18,WSW,250,0.0,0.0,90,0.00,,,0.00,weatherlink.com 1.10,2013-12-28 14:03:00,
2013-12-28 09:18:00,29.9,27.0,30.18,North,356,0.0,1.0,89,0.00,,,0.00,weatherlink.com 1.10,2013-12-28 14:18:00,
2013-12-28 09:33:00,31.0,28.0,30.17,SE,145,1.0,2.0,88,0.00,,,0.00,weatherlink.com 1.10,2013-12-28 14:33:00,
2013-12-28 09:48:00,32.5,28.0,30.17,ESE,113,2.0,2.0,83,0.00,,,0.00,weatherlink.com 1.10,2013-12-28 14:48:00,
2013-12-28 10:03:00,34.5,28.0,30.16,East,101,2.0,4.0,76,0.00,,,0.00,weatherlink.com 1.10,2013-12-28 15:03:00,
2013-12-28 10:18:00,36.2,28.0,30.16,SE,131,0.0,3.0,72,0.00,,,0.00,weatherlink.com 1.10,2013-12-28 15:18:00,
2013-12-28 10:33:00,37.8,28.0,30.16,ENE,74,1.0,1.0,68,0.00,,,0.00,weatherlink.com 1.10,2013-12-28 15:33:00,
2013-12-28 10:48:00,39.9,29.0,30.16,ESE,120,4.0,4.0,64,0.00,,,0.00,weatherlink.com 1.10,2013-12-28 15:48:00,
2013-12-28 11:04:00,41.4,28.0,30.14,SE,134,4.0,8.0,59,0.00,,,0.00,weatherlink.com 1.10,2013-12-28 16:04:00,
2013-12-28 11:19:00,42.9,28.0,30.13,SE,131,2.0,5.0,56,0.00,,,0.00,weatherlink.com 1.10,2013-12-28 16:19:00,
2013-12-28 11:34:00,43.7,28.0,30.11,SSE,155,3.0,7.0,54,0.00,,,0.00,weatherlink.com 1.10,2013-12-28 16:34:00,
2013-12-28 11:49:00,46.0,29.0,30.10,ESE,105,6.0,7.0,52,0.00,,,0.00,weatherlink.com 1.10,2013-12-28 16:49:00,
2013-12-28 12:04:00,47.7,29.0,30.09,SE,145,3.0,7.0,48,0.00,,,0.00,weatherlink.com 1.10,2013-12-28 17:04:00,
2013-12-28 12:19:00,49.3,29.0,30.08,SW,236,11.0,14.0,45,0.00,,,0.00,weatherlink.com 1.10,2013-12-28 17:19:00,
2013-12-28 12:34:00,50.5,29.0,30.06,West,263,3.0,9.0,44,0.00,,,0.00,weatherlink.com 1.10,2013-12-28 17:34:00,
2013-12-28 12:49:00,51.4,29.0,30.05,SSE,160,5.0,9.0,43,0.00,,,0.00,weatherlink.com 1.10,2013-12-28 17:49:00,
2013-12-28 13:04:00,52.1,29.0,30.04,West,273,2.0,10.0,42,0.00,,,0.00,weatherlink.com 1.10,2013-12-28 18:04:00,
2013-12-28 13:19:00,52.6,30.0,30.04,South,190,3.0,9.0,42,0.00,,,0.00,weatherlink.com 1.10,2013-12-28 18:19:00,
2013-12-28 13:34:00,52.8,29.0,30.04,SSE,151,4.0,11.0,41,0.00,,,0.00,weatherlink.com 1.10,2013-12-28 18:34:00,
2013-12-28 13:49:00,53.0,30.0,30.03,West,261,3.0,13.0,41,0.00,,,0.00,weatherlink.com 1.10,2013-12-28 18:49:00,
2013-12-28 14:04:00,53.2,30.0,30.03,SE,141,4.0,14.0,41,0.00,,,0.00,weatherlink.com 1.10,2013-12-28 19:04:00,
2013-12-28 14:19:00,53.6,30.0,30.03,SW,217,4.0,10.0,40,0.00,,,0.00,weatherlink.com 1.10,2013-12-28 19:19:00,
2013-12-28 14:34:00,53.5,30.0,30.02,SSW,200,6.0,12.0,40,0.00,,,0.00,weatherlink.com 1.10,2013-12-28 19:34:00,
2013-12-28 14:49:00,53.5,30.0,30.03,SSE,163,5.0,10.0,40,0.00,,,0.00,weatherlink.com 1.10,2013-12-28 19:49:00,
2013-12-28 15:04:00,53.4,29.0,30.02,ESE,117,2.0,10.0,40,0.00,,,0.00,weatherlink.com 1.10,2013-12-28 20:04:00,
2013-12-28 15:19:00,53.4,29.0,30.02,SSE,164,2.0,10.0,40,0.00,,,0.00,weatherlink.com 1.10,2013-12-28 20:19:00,
2013-12-28 15:34:00,53.2,30.0,30.02,West,265,4.0,8.0,41,0.00,,,0.00,weatherlink.com 1.10,2013-12-28 20:34:00,
2013-12-28 15:49:00,52.9,30.0,30.02,SSE,148,6.0,10.0,41,0.00,,,0.00,weatherlink.com 1.10,2013-12-28 20:49:00,
2013-12-28 16:04:00,51.9,30.0,30.02,SE,139,4.0,4.0,43,0.00,,,0.00,weatherlink.com 1.10,2013-12-28 21:04:00,
2013-12-28 16:19:00,50.8,29.0,30.02,SE,139,2.0,4.0,44,0.00,,,0.00,weatherlink.com 1.10,2013-12-28 21:19:00,
2013-12-28 16:34:00,50.1,29.0,30.03,SSE,155,2.0,7.0,45,0.00,,,0.00,weatherlink.com 1.10,2013-12-28 21:34:00,
2013-12-28 16:49:00,49.0,29.0,30.04,SSE,156,0.0,3.0,46,0.00,,,0.00,weatherlink.com 1.10,2013-12-28 21:49:00,
2013-12-28 17:05:00,48.2,29.0,30.05,SSW,205,0.0,2.0,47,0.00,,,0.00,weatherlink.com 1.10,2013-12-28 22:05:00,
2013-12-28 17:20:00,46.9,28.0,30.05,SSW,208,0.0,0.0,49,0.00,,,0.00,weatherlink.com 1.10,2013-12-28 22:20:00,
2013-12-28 17:35:00,45.1,28.0,30.05,SSW,208,0.0,1.0,52,0.00,,,0.00,weatherlink.com 1.10,2013-12-28 22:35:00,
2013-12-28 17:50:00,41.8,28.0,30.05,SSW,210,1.0,1.0,59,0.00,,,0.00,weatherlink.com 1.10,2013-12-28 22:50:00,
2013-12-28 18:05:00,39.1,28.0,30.05,SSW,210,0.0,0.0,64,0.00,,,0.00,weatherlink.com 1.10,2013-12-28 23:05:00,
2013-12-28 18:20:00,37.2,27.0,30.06,SSW,210,0.0,1.0,68,0.00,,,0.00,weatherlink.com 1.10,2013-12-28 23:20:00,
2013-12-28 18:35:00,35.6,27.0,30.06,SSW,210,0.0,0.0,71,0.00,,,0.00,weatherlink.com 1.10,2013-12-28 23:35:00,
2013-12-28 18:50:00,34.8,27.0,30.06,West,269,0.0,0.0,74,0.00,,,0.00,weatherlink.com 1.10,2013-12-28 23:50:00,
2013-12-28 19:05:00,33.8,27.0,30.06,West,269,0.0,0.0,77,0.00,,,0.00,weatherlink.com 1.10,2013-12-29 00:05:00,
2013-12-28 19:20:00,33.0,27.0,30.06,West,269,0.0,0.0,78,0.00,,,0.00,weatherlink.com 1.10,2013-12-29 00:20:00,
2013-12-28 19:35:00,32.3,26.0,30.07,West,269,0.0,0.0,79,0.00,,,0.00,weatherlink.com 1.10,2013-12-29 00:35:00,
2013-12-28 19:50:00,30.9,26.0,30.06,West,269,0.0,0.0,82,0.00,,,0.00,weatherlink.com 1.10,2013-12-29 00:50:00,
2013-12-28 20:05:00,30.9,27.0,30.06,West,269,0.0,0.0,85,0.00,,,0.00,weatherlink.com 1.10,2013-12-29 01:05:00,
2013-12-28 20:20:00,30.2,26.0,30.07,West,269,0.0,0.0,84,0.00,,,0.00,weatherlink.com 1.10,2013-12-29 01:20:00,
2013-12-28 20:35:00,30.5,27.0,30.07,West,269,0.0,0.0,85,0.00,,,0.00,weatherlink.com 1.10,2013-12-29 01:35:00,
2013-12-28 20:50:00,30.1,26.0,30.07,West,269,0.0,0.0,85,0.00,,,0.00,weatherlink.com 1.10,2013-12-29 01:50:00,
2013-12-28 21:05:00,29.8,26.0,30.07,West,269,0.0,0.0,86,0.00,,,0.00,weatherlink.com 1.10,2013-12-29 02:05:00,
2013-12-28 21:20:00,29.9,27.0,30.06,West,269,0.0,0.0,87,0.00,,,0.00,weatherlink.com 1.10,2013-12-29 02:20:00,
2013-12-28 21:35:00,29.8,26.0,30.06,West,269,0.0,0.0,87,0.00,,,0.00,weatherlink.com 1.10,2013-12-29 02:35:00,
2013-12-28 21:50:00,29.5,26.0,30.06,West,269,0.0,0.0,87,0.00,,,0.00,weatherlink.com 1.10,2013-12-29 02:50:00,
2013-12-28 22:06:00,28.9,26.0,30.06,West,269,0.0,0.0,87,0.00,,,0.00,weatherlink.com 1.10,2013-12-29 03:06:00,
2013-12-28 22:21:00,29.2,27.0,30.05,West,269,0.0,0.0,90,0.00,,,0.00,weatherlink.com 1.10,2013-12-29 03:21:00,
2013-12-28 22:36:00,29.4,27.0,30.05,West,269,0.0,0.0,89,0.00,,,0.00,weatherlink.com 1.10,2013-12-29 03:36:00,
2013-12-28 22:51:00,29.5,27.0,30.05,West,269,0.0,0.0,89,0.00,,,0.00,weatherlink.com 1.10,2013-12-29 03:51:00,
2013-12-28 23:06:00,29.0,26.0,30.05,WNW,297,0.0,2.0,88,0.00,,,0.00,weatherlink.com 1.10,2013-12-29 04:06:00,
2013-12-28 23:21:00,29.1,27.0,30.05,WNW,297,0.0,2.0,90,0.00,,,0.00,weatherlink.com 1.10,2013-12-29 04:21:00,
2013-12-28 23:36:00,29.2,27.0,30.04,WNW,297,0.0,0.0,90,0.00,,,0.00,weatherlink.com 1.10,2013-12-29 04:36:00,
2013-12-28 23:51:00,29.0,27.0,30.03,WNW,297,0.0,0.0,90,0.00,,,0.00,weatherlink.com 1.10,2013-12-29 04:51:00,